Time;durP1;ratioP1;P1;durP2;ratioP2;P2;SDS_P1;SDS_P2;PMS_P1;PMS_P2;Temp;Humidity;BMP_temperature;BMP_pressure;BME280_temperature;BME280_humidity;BME280_pressure;Samples;Min_cycle;Max_cycle;Signal;HPM_P1;HPM_P2
2023/09/15 00:01:41;;;;;;;0.10;0.10;;;;;;;;;;5014857;28;20041;-88
2023/09/15 00:04:08;;;;;;;0.10;0.10;;;;;;;;;;5014595;28;20048;-89
2023/09/15 00:06:35;;;;;;;0.10;0.10;;;;;;;;;;5014886;28;20045;-88
2023/09/15 00:09:06;;;;;;;0.10;0.10;;;;;;;;;;5030899;28;20042;-89
2023/09/15 00:11:41;;;;;;;0.10;0.10;;;;;;;;;;5031247;28;20064;-89
2023/09/15 00:14:11;;;;;;;0.10;0.10;;;;;;;;;;5031064;28;20168;-89
2023/09/15 00:16:38;;;;;;;0.10;0.10;;;;;;;;;;5014837;28;20049;-89
2023/09/15 00:19:06;;;;;;;0.10;0.10;;;;;;;;;;5014753;28;20061;-89
2023/09/15 00:21:33;;;;;;;0.10;0.10;;;;;;;;;;5031104;28;20041;-89
2023/09/15 00:24:01;;;;;;;0.10;0.10;;;;;;;;;;5030584;28;20493;-89
2023/09/15 00:26:30;;;;;;;0.10;0.10;;;;;;;;;;5014660;28;20542;-90
2023/09/15 00:28:56;;;;;;;0.10;0.10;;;;;;;;;;5030789;28;20064;-89
2023/09/15 00:31:23;;;;;;;0.10;0.10;;;;;;;;;;5031006;28;20037;-89
2023/09/15 00:33:49;;;;;;;0.10;0.10;;;;;;;;;;5014968;28;20049;-88
2023/09/15 00:36:15;;;;;;;0.10;0.10;;;;;;;;;;5030837;28;20080;-89
2023/09/15 00:38:41;;;;;;;0.10;0.10;;;;;;;;;;5014264;28;20065;-89
2023/09/15 00:41:07;;;;;;;0.10;0.10;;;;;;;;;;5030807;28;20045;-88
2023/09/15 00:43:33;;;;;;;0.10;0.10;;;;;;;;;;5014053;28;20107;-88
2023/09/15 00:45:59;;;;;;;0.10;0.10;;;;;;;;;;5014161;28;20128;-88
2023/09/15 00:48:26;;;;;;;0.10;0.10;;;;;;;;;;5014247;28;20048;-87
2023/09/15 00:50:55;;;;;;;0.10;0.10;;;;;;;;;;5015065;28;20397;-88
2023/09/15 00:53:21;;;;;;;0.10;0.10;;;;;;;;;;5014672;28;20033;-88
2023/09/15 00:55:51;;;;;;;0.10;0.10;;;;;;;;;;5016279;28;20037;-87
2023/09/15 00:58:17;;;;;;;0.10;0.10;;;;;;;;;;5018220;28;20396;-87
2023/09/15 01:00:44;;;;;;;0.10;0.10;;;;;;;;;;5017764;28;20073;-87
2023/09/15 01:03:14;;;;;;;0.10;0.10;;;;;;;;;;5034064;28;20126;-86
2023/09/15 01:05:40;;;;;;;0.30;0.30;;;;;;;;;;5017565;28;20041;-86
2023/09/15 01:08:10;;;;;;;0.10;0.10;;;;;;;;;;5017831;28;20037;-87
2023/09/15 01:10:36;;;;;;;0.10;0.10;;;;;;;;;;5034126;28;20481;-87
2023/09/15 01:13:03;;;;;;;0.10;0.10;;;;;;;;;;5017413;28;20048;-88
2023/09/15 01:15:30;;;;;;;0.10;0.10;;;;;;;;;;5017416;28;20037;-87
2023/09/15 01:17:56;;;;;;;0.10;0.10;;;;;;;;;;5017570;28;20084;-87
2023/09/15 01:20:28;;;;;;;0.10;0.10;;;;;;;;;;5033744;28;20064;-87
2023/09/15 01:23:05;;;;;;;0.10;0.10;;;;;;;;;;5033807;28;20111;-86
2023/09/15 01:25:39;;;;;;;0.10;0.10;;;;;;;;;;5017152;28;20344;-87
2023/09/15 01:28:14;;;;;;;0.10;0.10;;;;;;;;;;5017312;28;20093;-87
2023/09/15 01:30:41;;;;;;;0.10;0.10;;;;;;;;;;5033671;28;20042;-88
2023/09/15 01:33:09;;;;;;;0.10;0.10;;;;;;;;;;5017539;28;20473;-88
2023/09/15 01:35:35;;;;;;;0.10;0.10;;;;;;;;;;5017322;28;20120;-88
2023/09/15 01:38:01;;;;;;;0.10;0.10;;;;;;;;;;5017038;28;20076;-88
2023/09/15 01:40:27;;;;;;;0.10;0.10;;;;;;;;;;5017319;28;20095;-88
2023/09/15 01:42:54;;;;;;;0.10;0.10;;;;;;;;;;5016888;28;20492;-88
2023/09/15 01:45:20;;;;;;;0.10;0.10;;;;;;;;;;5016872;28;20037;-88
2023/09/15 01:47:46;;;;;;;0.20;0.20;;;;;;;;;;5016970;28;20041;-88
2023/09/15 01:50:12;;;;;;;0.10;0.10;;;;;;;;;;5016998;28;20506;-88
2023/09/15 01:52:39;;;;;;;0.10;0.10;;;;;;;;;;5016966;28;20037;-89
2023/09/15 01:55:06;;;;;;;0.10;0.10;;;;;;;;;;5017009;28;20481;-88
2023/09/15 01:57:32;;;;;;;0.10;0.10;;;;;;;;;;5017123;28;20485;-88
2023/09/15 01:59:58;;;;;;;0.10;0.10;;;;;;;;;;5016985;28;20052;-88
2023/09/15 02:02:24;;;;;;;0.10;0.10;;;;;;;;;;5016977;28;20053;-89
2023/09/15 02:04:50;;;;;;;0.10;0.10;;;;;;;;;;5033005;28;20043;-88
2023/09/15 02:07:16;;;;;;;0.10;0.10;;;;;;;;;;5032385;28;20567;-89
2023/09/15 02:09:42;;;;;;;0.10;0.10;;;;;;;;;;5017019;28;20124;-89
2023/09/15 02:12:08;;;;;;;0.10;0.10;;;;;;;;;;5016641;28;20089;-88
2023/09/15 02:14:34;;;;;;;0.10;0.10;;;;;;;;;;5016641;28;20077;-87
2023/09/15 02:17:01;;;;;;;0.10;0.10;;;;;;;;;;5032689;28;20107;-88
2023/09/15 02:19:29;;;;;;;0.10;0.10;;;;;;;;;;5016312;28;20497;-88
2023/09/15 02:21:55;;;;;;;0.10;0.10;;;;;;;;;;5016530;28;20045;-89
2023/09/15 02:24:21;;;;;;;0.10;0.10;;;;;;;;;;5016110;28;20048;-88
2023/09/15 02:26:47;;;;;;;0.10;0.10;;;;;;;;;;5016377;28;20427;-88
2023/09/15 02:29:13;;;;;;;0.10;0.10;;;;;;;;;;5033008;28;20041;-88
2023/09/15 02:31:40;;;;;;;0.10;0.10;;;;;;;;;;5016253;28;20041;-88
2023/09/15 02:34:06;;;;;;;0.10;0.10;;;;;;;;;;5016037;28;20052;-88
2023/09/15 02:36:31;;;;;;;0.20;0.20;;;;;;;;;;5015971;28;20045;-87
2023/09/15 02:38:57;;;;;;;0.10;0.10;;;;;;;;;;5015923;28;20174;-88
2023/09/15 02:41:23;;;;;;;0.10;0.10;;;;;;;;;;5032570;28;20048;-88
2023/09/15 02:43:49;;;;;;;0.10;0.10;;;;;;;;;;5015652;28;20048;-87
2023/09/15 02:46:15;;;;;;;0.10;0.10;;;;;;;;;;5016034;28;20041;-87
2023/09/15 02:48:42;;;;;;;0.10;0.10;;;;;;;;;;5015869;28;20056;-87
2023/09/15 02:51:08;;;;;;;0.10;0.10;;;;;;;;;;5015649;28;20043;-88
2023/09/15 02:53:34;;;;;;;0.10;0.10;;;;;;;;;;5031906;28;20041;-88
2023/09/15 02:56:00;;;;;;;0.10;0.10;;;;;;;;;;5015657;28;20041;-87
2023/09/15 02:58:29;;;;;;;0.10;0.10;;;;;;;;;;5015685;28;20044;-87
2023/09/15 03:00:55;;;;;;;0.10;0.10;;;;;;;;;;5015502;28;20073;-87
2023/09/15 03:03:24;;;;;;;0.10;0.10;;;;;;;;;;5031759;28;20037;-88
2023/09/15 03:05:51;;;;;;;0.10;0.10;;;;;;;;;;5015903;28;20072;-88
2023/09/15 03:08:17;;;;;;;0.08;0.08;;;;;;;;;;5032356;28;20053;-89
2023/09/15 03:10:43;;;;;;;0.20;0.20;;;;;;;;;;5032404;28;20037;-89
2023/09/15 03:13:10;;;;;;;0.10;0.10;;;;;;;;;;5015517;28;20037;-88
2023/09/15 03:15:39;;;;;;;0.10;0.10;;;;;;;;;;5015324;28;20135;-88
2023/09/15 03:18:05;;;;;;;0.10;0.10;;;;;;;;;;5015131;28;20118;-89
2023/09/15 03:20:31;;;;;;;0.10;0.10;;;;;;;;;;5015298;28;20053;-88
2023/09/15 03:22:59;;;;;;;0.10;0.10;;;;;;;;;;5015297;28;20209;-88
2023/09/15 03:25:25;;;;;;;0.10;0.10;;;;;;;;;;5015315;28;20037;-88
2023/09/15 03:27:53;;;;;;;0.10;0.10;;;;;;;;;;5015056;28;20485;-88
2023/09/15 03:30:19;;;;;;;0.10;0.10;;;;;;;;;;5015402;28;20124;-88
2023/09/15 03:32:45;;;;;;;0.10;0.10;;;;;;;;;;5015278;28;20076;-89
2023/09/15 03:35:11;;;;;;;0.10;0.10;;;;;;;;;;5031344;28;20132;-88
2023/09/15 03:37:38;;;;;;;0.10;0.10;;;;;;;;;;5031286;28;20528;-89
2023/09/15 03:40:05;;;;;;;0.10;0.10;;;;;;;;;;5015238;28;20465;-88
2023/09/15 03:42:31;;;;;;;0.10;0.10;;;;;;;;;;5015088;28;20045;-88
2023/09/15 03:44:57;;;;;;;0.10;0.10;;;;;;;;;;5014674;28;20506;-88
2023/09/15 03:47:23;;;;;;;0.10;0.10;;;;;;;;;;5014888;28;20101;-88
2023/09/15 03:49:49;;;;;;;0.10;0.10;;;;;;;;;;5015382;28;20048;-89
2023/09/15 03:52:15;;;;;;;0.10;0.10;;;;;;;;;;5014777;28;20045;-89
2023/09/15 03:54:41;;;;;;;0.10;0.10;;;;;;;;;;5014998;28;20064;-89
2023/09/15 03:57:07;;;;;;;0.10;0.10;;;;;;;;;;5014867;28;20496;-89
2023/09/15 03:59:33;;;;;;;0.10;0.10;;;;;;;;;;5014766;28;20407;-88
2023/09/15 04:01:59;;;;;;;0.10;0.10;;;;;;;;;;5014756;28;20045;-88
2023/09/15 04:04:25;;;;;;;0.10;0.10;;;;;;;;;;5015162;28;20416;-83
2023/09/15 04:06:51;;;;;;;0.10;0.10;;;;;;;;;;5030899;28;20040;-89
2023/09/15 04:09:19;;;;;;;0.10;0.10;;;;;;;;;;5014935;28;20042;-89
2023/09/15 04:11:45;;;;;;;0.10;0.10;;;;;;;;;;5031032;28;20049;-89
2023/09/15 04:14:11;;;;;;;0.10;0.10;;;;;;;;;;5014804;28;20041;-89
2023/09/15 04:16:37;;;;;;;0.10;0.10;;;;;;;;;;5031089;28;20390;-89
2023/09/15 04:19:04;;;;;;;0.20;0.20;;;;;;;;;;5015071;28;20406;-89
2023/09/15 04:21:30;;;;;;;0.10;0.10;;;;;;;;;;5014693;28;20041;-89
2023/09/15 04:23:56;;;;;;;0.10;0.10;;;;;;;;;;5030758;28;20047;-88
2023/09/15 04:26:22;;;;;;;0.00;0.00;;;;;;;;;;5014423;28;20473;-88
2023/09/15 04:28:48;;;;;;;0.10;0.10;;;;;;;;;;5015203;28;20400;-88
2023/09/15 04:31:14;;;;;;;0.10;0.10;;;;;;;;;;5016813;28;20094;-88
2023/09/15 04:33:40;;;;;;;0.10;0.10;;;;;;;;;;5034619;28;20041;-89
2023/09/15 04:36:06;;;;;;;0.10;0.10;;;;;;;;;;5002143;28;20038;-89
2023/09/15 04:38:32;;;;;;;0.10;0.10;;;;;;;;;;5001775;28;20476;-90
2023/09/15 04:40:58;;;;;;;0.10;0.10;;;;;;;;;;5034901;28;20067;-89
2023/09/15 04:43:24;;;;;;;0.10;0.10;;;;;;;;;;5018252;28;20459;-87
2023/09/15 04:45:50;;;;;;;0.10;0.10;;;;;;;;;;5034532;28;20064;-88
2023/09/15 04:48:16;;;;;;;0.10;0.10;;;;;;;;;;5018113;28;20052;-88
2023/09/15 04:50:42;;;;;;;0.10;0.10;;;;;;;;;;5018093;28;20540;-88
2023/09/15 04:53:08;;;;;;;0.10;0.10;;;;;;;;;;5034224;28;20542;-88
2023/09/15 04:55:34;;;;;;;0.10;0.10;;;;;;;;;;5017936;28;20049;-88
2023/09/15 04:58:00;;;;;;;0.10;0.10;;;;;;;;;;5033991;28;20095;-88
2023/09/15 05:00:26;;;;;;;0.10;0.10;;;;;;;;;;5017935;28;20128;-88
2023/09/15 05:02:53;;;;;;;0.10;0.10;;;;;;;;;;5017925;28;20041;-88
2023/09/15 05:05:19;;;;;;;0.10;0.10;;;;;;;;;;5017863;28;20097;-88
2023/09/15 05:07:48;;;;;;;0.10;0.10;;;;;;;;;;5035678;28;20034;-88
2023/09/15 05:10:14;;;;;;;0.10;0.10;;;;;;;;;;5033963;28;20038;-88
2023/09/15 05:12:40;;;;;;;0.10;0.10;;;;;;;;;;5017010;28;20072;-87
2023/09/15 05:15:07;;;;;;;0.10;0.10;;;;;;;;;;5017385;28;20049;-88
2023/09/15 05:17:33;;;;;;;0.10;0.10;;;;;;;;;;5017521;28;20073;-87
2023/09/15 05:19:59;;;;;;;0.10;0.10;;;;;;;;;;5017236;28;20057;-87
2023/09/15 05:22:25;;;;;;;0.10;0.10;;;;;;;;;;5017260;28;20057;-87
2023/09/15 05:24:51;;;;;;;0.10;0.10;;;;;;;;;;5017546;28;20041;-88
2023/09/15 05:27:16;;;;;;;0.10;0.10;;;;;;;;;;5017024;28;20037;-88
2023/09/15 05:29:44;;;;;;;0.10;0.10;;;;;;;;;;5017267;28;20088;-88
2023/09/15 05:32:09;;;;;;;0.10;0.10;;;;;;;;;;5017529;28;20038;-88
2023/09/15 05:34:35;;;;;;;0.10;0.10;;;;;;;;;;5017123;28;20499;-88
2023/09/15 05:37:03;;;;;;;0.10;0.10;;;;;;;;;;5033460;28;20073;-87
2023/09/15 05:39:30;;;;;;;0.10;0.10;;;;;;;;;;5033622;28;20115;-89
2023/09/15 05:41:56;;;;;;;0.10;0.10;;;;;;;;;;5016671;28;20049;-88
2023/09/15 05:44:22;;;;;;;0.10;0.10;;;;;;;;;;5018117;28;20563;-90
2023/09/15 05:46:48;;;;;;;0.10;0.10;;;;;;;;;;5018564;28;20053;-89
2023/09/15 05:49:14;;;;;;;0.10;0.10;;;;;;;;;;5017365;28;20037;-89
2023/09/15 05:51:40;;;;;;;0.10;0.10;;;;;;;;;;5016980;28;20400;-89
2023/09/15 05:54:07;;;;;;;0.10;0.10;;;;;;;;;;5017884;28;20037;-89
2023/09/15 05:56:33;;;;;;;0.22;0.20;;;;;;;;;;5020102;28;20056;-90
2023/09/15 05:58:59;;;;;;;0.10;0.10;;;;;;;;;;5020193;28;20409;-92
2023/09/15 06:01:25;;;;;;;0.10;0.10;;;;;;;;;;5018741;28;20045;-92
2023/09/15 06:03:51;;;;;;;0.10;0.10;;;;;;;;;;5018914;28;20077;-94
2023/09/15 06:06:29;;;;;;;0.10;0.10;;;;;;;;;;5018805;28;20045;-94
2023/09/15 06:08:55;;;;;;;0.10;0.10;;;;;;;;;;5021529;28;20050;-91
2023/09/15 06:11:21;;;;;;;0.10;0.10;;;;;;;;;;5017265;28;20415;-95
2023/09/15 06:13:47;;;;;;;0.10;0.10;;;;;;;;;;5017635;28;20120;-89
2023/09/15 06:16:13;;;;;;;0.10;0.10;;;;;;;;;;5017036;28;20505;-91
2023/09/15 06:18:39;;;;;;;0.10;0.10;;;;;;;;;;5017331;28;20037;-90
2023/09/15 06:21:05;;;;;;;0.20;0.20;;;;;;;;;;5016764;28;20068;-89
2023/09/15 06:23:31;;;;;;;0.10;0.10;;;;;;;;;;5017561;28;20516;-88
2023/09/15 06:25:57;;;;;;;0.10;0.10;;;;;;;;;;5033548;28;20037;-89
2023/09/15 06:28:23;;;;;;;0.10;0.10;;;;;;;;;;5016832;28;20576;-91
2023/09/15 06:30:49;;;;;;;0.10;0.10;;;;;;;;;;5016642;28;20088;-90
2023/09/15 06:33:15;;;;;;;0.10;0.10;;;;;;;;;;5016683;28;20477;-90
2023/09/15 06:35:42;;;;;;;0.10;0.10;;;;;;;;;;5033298;28;20045;-91
2023/09/15 06:38:09;;;;;;;0.10;0.10;;;;;;;;;;5016477;28;20068;-91
2023/09/15 06:40:35;;;;;;;0.10;0.10;;;;;;;;;;5016620;28;20041;-91
2023/09/15 06:43:04;;;;;;;0.30;0.30;;;;;;;;;;5016553;28;20041;-90
2023/09/15 06:45:31;;;;;;;0.40;0.40;;;;;;;;;;5016475;28;20481;-91
2023/09/15 06:47:59;;;;;;;0.10;0.10;;;;;;;;;;5032779;28;20053;-90
2023/09/15 06:50:25;;;;;;;0.10;0.10;;;;;;;;;;5016511;28;20072;-91
2023/09/15 06:52:51;;;;;;;0.10;0.10;;;;;;;;;;5015784;28;20037;-91
2023/09/15 06:55:17;;;;;;;0.20;0.20;;;;;;;;;;5016321;28;20092;-92
2023/09/15 06:57:43;;;;;;;0.10;0.10;;;;;;;;;;5016081;28;20409;-91
2023/09/15 07:00:10;;;;;;;0.10;0.10;;;;;;;;;;5016065;28;20041;-91
2023/09/15 07:02:37;;;;;;;0.10;0.10;;;;;;;;;;5016123;28;20049;-92
2023/09/15 07:05:04;;;;;;;0.10;0.10;;;;;;;;;;5015918;28;20048;-92
2023/09/15 07:07:30;;;;;;;0.10;0.10;;;;;;;;;;5016259;28;20374;-91
2023/09/15 07:09:56;;;;;;;0.10;0.10;;;;;;;;;;5015910;28;20041;-91
2023/09/15 07:12:22;;;;;;;0.10;0.10;;;;;;;;;;5032060;28;20460;-91
2023/09/15 07:14:49;;;;;;;0.10;0.10;;;;;;;;;;5031975;28;20099;-91
2023/09/15 07:17:16;;;;;;;0.17;0.17;;;;;;;;;;5015807;28;20053;-91
2023/09/15 07:19:44;;;;;;;0.20;0.20;;;;;;;;;;5015239;28;20540;-91
2023/09/15 07:22:10;;;;;;;0.10;0.10;;;;;;;;;;5015939;28;20507;-91
2023/09/15 07:24:40;;;;;;;0.10;0.10;;;;;;;;;;5015373;28;20045;-91
2023/09/15 07:27:06;;;;;;;0.20;0.20;;;;;;;;;;5016131;28;20040;-91
2023/09/15 07:29:33;;;;;;;1.15;1.05;;;;;;;;;;5031566;28;20457;-91
2023/09/15 07:31:59;;;;;;;0.20;0.20;;;;;;;;;;5015745;28;20049;-91
2023/09/15 07:34:25;;;;;;;0.10;0.10;;;;;;;;;;5015634;28;20037;-90
2023/09/15 07:36:51;;;;;;;0.10;0.10;;;;;;;;;;5015070;28;20041;-91
2023/09/15 07:39:17;;;;;;;0.10;0.10;;;;;;;;;;5015125;28;20041;-91
2023/09/15 07:41:45;;;;;;;0.10;0.10;;;;;;;;;;5015688;28;20507;-91
2023/09/15 07:44:11;;;;;;;0.10;0.10;;;;;;;;;;5015034;28;20045;-91
2023/09/15 07:46:41;;;;;;;0.10;0.10;;;;;;;;;;5031534;28;20401;-91
2023/09/15 07:49:07;;;;;;;0.13;0.13;;;;;;;;;;5015477;28;20041;-91
2023/09/15 07:51:33;;;;;;;0.10;0.10;;;;;;;;;;5015234;28;20163;-91
2023/09/15 07:54:00;;;;;;;0.28;0.28;;;;;;;;;;5031751;28;20064;-91
2023/09/15 07:56:26;;;;;;;0.10;0.10;;;;;;;;;;5015120;28;20038;-91
2023/09/15 07:58:52;;;;;;;0.10;0.10;;;;;;;;;;5016075;28;20056;-91
2023/09/15 08:01:18;;;;;;;0.20;0.20;;;;;;;;;;5015135;28;20089;-91
2023/09/15 08:03:45;;;;;;;0.10;0.10;;;;;;;;;;5014566;28;20331;-91
2023/09/15 08:06:14;;;;;;;0.30;0.30;;;;;;;;;;5015424;28;20041;-91
2023/09/15 08:08:42;;;;;;;0.10;0.10;;;;;;;;;;5014969;28;20041;-91
2023/09/15 08:11:09;;;;;;;0.15;0.15;;;;;;;;;;5015329;28;20040;-91
2023/09/15 08:13:35;;;;;;;0.20;0.20;;;;;;;;;;5014849;28;20052;-91
2023/09/15 08:16:01;;;;;;;0.45;0.20;;;;;;;;;;5015015;28;20041;-91
2023/09/15 08:18:27;;;;;;;0.10;0.10;;;;;;;;;;5030780;28;20044;-91
2023/09/15 08:20:53;;;;;;;0.20;0.20;;;;;;;;;;5014363;28;20057;-91
2023/09/15 08:23:19;;;;;;;0.20;0.20;;;;;;;;;;5014918;28;20044;-91
2023/09/15 08:25:45;;;;;;;0.10;0.10;;;;;;;;;;5014484;28;20049;-91
2023/09/15 08:28:10;;;;;;;0.10;0.10;;;;;;;;;;5031060;28;20038;-91
2023/09/15 08:30:36;;;;;;;0.20;0.20;;;;;;;;;;5014559;28;20037;-91
2023/09/15 08:33:03;;;;;;;0.10;0.10;;;;;;;;;;5015397;28;20486;-91
2023/09/15 08:35:29;;;;;;;0.20;0.20;;;;;;;;;;5015005;28;20049;-91
2023/09/15 08:37:55;;;;;;;0.10;0.10;;;;;;;;;;5014864;28;20099;-91
2023/09/15 08:40:21;;;;;;;0.20;0.20;;;;;;;;;;5014939;28;20037;-91
2023/09/15 08:42:47;;;;;;;0.15;0.15;;;;;;;;;;5014796;28;20551;-91
2023/09/15 08:45:13;;;;;;;0.20;0.20;;;;;;;;;;5030765;28;20068;-91
2023/09/15 08:47:43;;;;;;;0.15;0.15;;;;;;;;;;5015782;28;20092;-90
2023/09/15 08:50:09;;;;;;;0.10;0.10;;;;;;;;;;5015197;28;20042;-90
2023/09/15 08:52:35;;;;;;;0.20;0.20;;;;;;;;;;5014930;28;20432;-91
2023/09/15 08:55:02;;;;;;;0.20;0.20;;;;;;;;;;5014777;28;20091;-91
2023/09/15 08:57:27;;;;;;;0.20;0.20;;;;;;;;;;5014520;28;20049;-91
2023/09/15 08:59:54;;;;;;;0.20;0.20;;;;;;;;;;5013947;28;20057;-91
2023/09/15 09:02:21;;;;;;;0.20;0.20;;;;;;;;;;5014667;28;20049;-91
2023/09/15 09:04:47;;;;;;;0.20;0.20;;;;;;;;;;5014628;28;20088;-91
2023/09/15 09:07:13;;;;;;;0.20;0.20;;;;;;;;;;5014607;28;20048;-91
2023/09/15 09:09:41;;;;;;;0.10;0.10;;;;;;;;;;5014499;28;20346;-91
2023/09/15 09:12:08;;;;;;;0.20;0.20;;;;;;;;;;5014509;28;20043;-90
2023/09/15 09:14:35;;;;;;;0.20;0.20;;;;;;;;;;5030874;28;20083;-91
2023/09/15 09:17:01;;;;;;;0.20;0.20;;;;;;;;;;5016602;28;20064;-91
2023/09/15 09:19:35;;;;;;;0.20;0.20;;;;;;;;;;5017694;28;20243;-90
2023/09/15 09:22:01;;;;;;;0.20;0.20;;;;;;;;;;5017856;28;20120;-91
2023/09/15 09:24:27;;;;;;;0.20;0.20;;;;;;;;;;5017738;28;20548;-91
2023/09/15 09:26:54;;;;;;;0.20;0.20;;;;;;;;;;5017620;28;20076;-91
2023/09/15 09:29:25;;;;;;;0.20;0.20;;;;;;;;;;5018232;28;20140;-91
2023/09/15 09:31:50;;;;;;;1.10;0.30;;;;;;;;;;5034058;28;20103;-91
2023/09/15 09:34:18;;;;;;;0.20;0.20;;;;;;;;;;5017821;28;20041;-91
2023/09/15 09:36:48;;;;;;;0.20;0.20;;;;;;;;;;5017954;28;20049;-91
2023/09/15 09:39:14;;;;;;;0.20;0.20;;;;;;;;;;5017452;28;20041;-91
2023/09/15 09:41:40;;;;;;;0.20;0.20;;;;;;;;;;5017732;28;20033;-91
2023/09/15 09:44:07;;;;;;;0.20;0.20;;;;;;;;;;5017657;28;20049;-91
2023/09/15 09:46:33;;;;;;;0.20;0.20;;;;;;;;;;5017207;28;20081;-91
2023/09/15 09:48:59;;;;;;;0.30;0.30;;;;;;;;;;5017443;28;20043;-91
2023/09/15 09:51:25;;;;;;;0.20;0.20;;;;;;;;;;5017248;28;20041;-91
2023/09/15 09:53:55;;;;;;;0.20;0.20;;;;;;;;;;5033488;28;20547;-91
2023/09/15 09:56:22;;;;;;;0.20;0.20;;;;;;;;;;5033946;28;20060;-92
2023/09/15 09:58:48;;;;;;;0.60;0.40;;;;;;;;;;5017000;28;20038;-91
2023/09/15 10:01:14;;;;;;;0.40;0.40;;;;;;;;;;5017570;28;20582;-91
2023/09/15 10:03:43;;;;;;;0.20;0.20;;;;;;;;;;5017418;28;20033;-91
2023/09/15 10:06:09;;;;;;;0.20;0.20;;;;;;;;;;5017504;28;20044;-91
2023/09/15 10:08:39;;;;;;;0.20;0.20;;;;;;;;;;5016986;28;20455;-90
2023/09/15 10:11:05;;;;;;;0.20;0.20;;;;;;;;;;5017568;28;20037;-91
2023/09/15 10:13:31;;;;;;;0.20;0.20;;;;;;;;;;5033032;28;20107;-90
2023/09/15 10:15:57;;;;;;;0.20;0.20;;;;;;;;;;5016970;28;20045;-91
2023/09/15 10:18:23;;;;;;;0.20;0.20;;;;;;;;;;5016648;28;20037;-91
2023/09/15 10:20:50;;;;;;;0.20;0.20;;;;;;;;;;5016641;28;20064;-91
2023/09/15 10:23:16;;;;;;;0.20;0.20;;;;;;;;;;5016987;28;20052;-91
2023/09/15 10:25:43;;;;;;;0.20;0.20;;;;;;;;;;5016587;28;20493;-91
2023/09/15 10:28:10;;;;;;;0.20;0.20;;;;;;;;;;5016684;28;20385;-91
2023/09/15 10:30:37;;;;;;;0.20;0.20;;;;;;;;;;5016391;28;20037;-92
2023/09/15 10:33:03;;;;;;;0.20;0.20;;;;;;;;;;5033406;28;20041;-92
2023/09/15 10:35:29;;;;;;;0.20;0.20;;;;;;;;;;5016583;28;20091;-92
2023/09/15 10:38:02;;;;;;;0.30;0.30;;;;;;;;;;5016497;28;20443;-92
2023/09/15 10:40:28;;;;;;;0.20;0.20;;;;;;;;;;5017486;28;20045;-92
2023/09/15 10:42:55;;;;;;;0.10;0.10;;;;;;;;;;5016344;28;20104;-92
2023/09/15 10:45:21;;;;;;;0.25;0.25;;;;;;;;;;5032928;28;20051;-92
2023/09/15 10:47:58;;;;;;;0.20;0.20;;;;;;;;;;5016480;28;20095;-92
2023/09/15 10:50:50;;;;;;;0.20;0.20;;;;;;;;;;5016735;28;20048;-92
2023/09/15 10:53:20;;;;;;;0.20;0.20;;;;;;;;;;5031573;28;20516;-93
2023/09/15 10:55:46;;;;;;;0.20;0.20;;;;;;;;;;5032507;28;20048;-91
2023/09/15 10:58:14;;;;;;;0.20;0.20;;;;;;;;;;5032861;28;20041;-92
2023/09/15 11:00:40;;;;;;;0.20;0.20;;;;;;;;;;5016177;28;20451;-92
2023/09/15 11:03:06;;;;;;;0.20;0.20;;;;;;;;;;5016556;28;20041;-92
2023/09/15 11:05:32;;;;;;;0.20;0.20;;;;;;;;;;5016123;28;20411;-92
2023/09/15 11:07:58;;;;;;;0.20;0.20;;;;;;;;;;5016447;28;20033;-92
2023/09/15 11:10:28;;;;;;;0.10;0.10;;;;;;;;;;5016302;28;20045;-92
2023/09/15 11:12:59;;;;;;;0.15;0.15;;;;;;;;;;5016258;28;20041;-91
2023/09/15 11:15:25;;;;;;;0.32;0.32;;;;;;;;;;5015834;28;20099;-91
2023/09/15 11:17:54;;;;;;;0.10;0.10;;;;;;;;;;5015923;28;20045;-92
2023/09/15 11:20:20;;;;;;;0.10;0.10;;;;;;;;;;5015656;28;20053;-92
2023/09/15 11:22:47;;;;;;;0.10;0.10;;;;;;;;;;5016195;28;20072;-90
2023/09/15 11:25:12;;;;;;;0.20;0.20;;;;;;;;;;5032090;28;20038;-92
2023/09/15 11:27:38;;;;;;;0.17;0.17;;;;;;;;;;5015232;28;20094;-91
2023/09/15 11:30:05;;;;;;;0.20;0.20;;;;;;;;;;5015506;28;20136;-91
2023/09/15 11:32:32;;;;;;;0.20;0.20;;;;;;;;;;5016056;28;20052;-92
2023/09/15 11:35:01;;;;;;;0.30;0.30;;;;;;;;;;5015560;28;20485;-91
2023/09/15 11:37:27;;;;;;;0.10;0.10;;;;;;;;;;5032360;28;20046;-93
2023/09/15 11:39:54;;;;;;;0.13;0.13;;;;;;;;;;5015210;28;20090;-93
2023/09/15 11:42:20;;;;;;;0.20;0.20;;;;;;;;;;5016045;28;20041;-93
2023/09/15 11:44:46;;;;;;;0.10;0.10;;;;;;;;;;5016118;28;20132;-92
2023/09/15 11:47:12;;;;;;;0.22;0.22;;;;;;;;;;5015798;28;20073;-92
2023/09/15 11:49:40;;;;;;;0.20;0.20;;;;;;;;;;5016183;28;20029;-93
2023/09/15 11:52:06;;;;;;;0.10;0.10;;;;;;;;;;5015776;28;20037;-92
2023/09/15 11:54:32;;;;;;;0.17;0.17;;;;;;;;;;5015698;28;20048;-93
2023/09/15 11:56:59;;;;;;;0.20;0.20;;;;;;;;;;5015861;28;20041;-92
2023/09/15 11:59:25;;;;;;;0.10;0.10;;;;;;;;;;5015337;28;20053;-93
2023/09/15 12:01:56;;;;;;;0.20;0.20;;;;;;;;;;5015481;28;20041;-92
2023/09/15 12:04:22;;;;;;;0.20;0.20;;;;;;;;;;5015558;28;20037;-92
2023/09/15 12:06:48;;;;;;;0.20;0.20;;;;;;;;;;5015312;28;20095;-92
2023/09/15 12:09:14;;;;;;;0.10;0.10;;;;;;;;;;5016088;28;20042;-93
2023/09/15 12:11:41;;;;;;;0.20;0.20;;;;;;;;;;5015798;28;20451;-92
2023/09/15 12:14:07;;;;;;;0.10;0.10;;;;;;;;;;5015452;28;20042;-92
2023/09/15 12:16:33;;;;;;;0.20;0.20;;;;;;;;;;5016009;28;20102;-93
2023/09/15 12:18:59;;;;;;;0.15;0.15;;;;;;;;;;5015767;28;20044;-93
2023/09/15 12:21:26;;;;;;;0.20;0.20;;;;;;;;;;5015091;28;20049;-91
2023/09/15 12:24:08;;;;;;;0.20;0.20;;;;;;;;;;4999012;28;20042;-94
2023/09/15 12:26:34;;;;;;;1.88;0.95;;;;;;;;;;4999270;28;20044;-88
2023/09/15 12:29:00;;;;;;;0.10;0.10;;;;;;;;;;5014562;28;20046;-88
2023/09/15 12:31:26;;;;;;;0.20;0.20;;;;;;;;;;5030860;28;20067;-88
2023/09/15 12:33:52;;;;;;;0.10;0.10;;;;;;;;;;5031091;28;20045;-91
2023/09/15 12:36:19;;;;;;;0.10;0.10;;;;;;;;;;5015649;28;20153;-91
2023/09/15 12:38:45;;;;;;;0.10;0.10;;;;;;;;;;5016770;28;20041;-94
2023/09/15 12:41:13;;;;;;;0.10;0.10;;;;;;;;;;4998788;28;20041;-91
2023/09/15 12:43:39;;;;;;;0.10;0.10;;;;;;;;;;5015201;28;20052;-92
2023/09/15 12:46:05;;;;;;;0.20;0.20;;;;;;;;;;5014280;28;20045;-91
2023/09/15 12:48:31;;;;;;;0.15;0.15;;;;;;;;;;4998577;28;20038;-88
2023/09/15 12:50:57;;;;;;;0.20;0.20;;;;;;;;;;5002577;28;20386;-94
2023/09/15 12:53:26;;;;;;;0.10;0.10;;;;;;;;;;5003131;28;20037;-93
2023/09/15 12:55:56;;;;;;;0.10;0.10;;;;;;;;;;5018680;28;20037;-92
2023/09/15 12:58:23;;;;;;;0.20;0.20;;;;;;;;;;5019188;28;20052;-91
2023/09/15 13:00:51;;;;;;;0.20;0.20;;;;;;;;;;5002843;28;20428;-92
2023/09/15 13:03:18;;;;;;;0.10;0.10;;;;;;;;;;5003591;28;20038;-94
2023/09/15 13:05:46;;;;;;;0.10;0.10;;;;;;;;;;5019083;28;20052;-96
2023/09/15 13:08:12;;;;;;;0.17;0.17;;;;;;;;;;5019882;28;20095;-95
2023/09/15 13:10:41;;;;;;;0.10;0.10;;;;;;;;;;5003688;28;20038;-95
2023/09/15 13:36:49;;;;;;;0.10;0.10;;;;;;;;;;5272913;23;20053;-93
2023/09/15 13:39:19;;;;;;;0.20;0.20;;;;;;;;;;4816491;29;20045;-94
2023/09/15 13:41:45;;;;;;;0.20;0.20;;;;;;;;;;4817319;29;20398;-93
2023/09/15 13:44:11;;;;;;;0.10;0.10;;;;;;;;;;4848342;29;20056;-93
2023/09/15 13:46:37;;;;;;;0.20;0.20;;;;;;;;;;4818147;29;20037;-93
2023/09/15 13:49:05;;;;;;;0.17;0.17;;;;;;;;;;4817545;29;20049;-94
2023/09/15 13:51:32;;;;;;;0.20;0.20;;;;;;;;;;4833598;29;20056;-94
2023/09/15 13:53:58;;;;;;;0.10;0.10;;;;;;;;;;4816594;29;20038;-94
2023/09/15 13:56:27;;;;;;;0.20;0.20;;;;;;;;;;4816267;29;20053;-93
2023/09/15 13:58:53;;;;;;;0.20;0.20;;;;;;;;;;4831627;29;20106;-94
2023/09/15 14:01:19;;;;;;;0.20;0.20;;;;;;;;;;4830450;29;20516;-94
2023/09/15 14:03:45;;;;;;;0.10;0.10;;;;;;;;;;4815548;29;20136;-93
2023/09/15 14:06:11;;;;;;;0.20;0.20;;;;;;;;;;4831237;29;20497;-94
2023/09/15 14:08:37;;;;;;;0.20;0.20;;;;;;;;;;4816278;29;20087;-94
2023/09/15 14:11:08;;;;;;;0.20;0.20;;;;;;;;;;4815736;29;20042;-93
2023/09/15 14:13:34;;;;;;;0.10;0.10;;;;;;;;;;4831244;29;20045;-94
2023/09/15 14:16:02;;;;;;;0.10;0.10;;;;;;;;;;4816257;29;20406;-93
2023/09/15 14:18:28;;;;;;;0.10;0.10;;;;;;;;;;4830994;29;20053;-94
2023/09/15 14:20:54;;;;;;;0.10;0.10;;;;;;;;;;4816240;29;20084;-94
2023/09/15 14:23:23;;;;;;;0.10;0.10;;;;;;;;;;4846596;29;20082;-93
2023/09/15 14:25:49;;;;;;;0.15;0.15;;;;;;;;;;4815305;29;20041;-93
2023/09/15 14:28:17;;;;;;;0.13;0.13;;;;;;;;;;4815377;29;20045;-94
2023/09/15 14:30:43;;;;;;;0.13;0.13;;;;;;;;;;4815250;29;20387;-89
2023/09/15 14:33:09;;;;;;;0.17;0.17;;;;;;;;;;4829761;29;20052;-91
2023/09/15 14:35:35;;;;;;;0.10;0.10;;;;;;;;;;4830083;29;20127;-93
2023/09/15 14:38:01;;;;;;;0.20;0.20;;;;;;;;;;4832176;29;20109;-93
2023/09/15 14:40:27;;;;;;;0.20;0.20;;;;;;;;;;4815611;29;20106;-95
2023/09/15 14:42:53;;;;;;;0.20;0.20;;;;;;;;;;4815382;29;20081;-93
2023/09/15 14:45:24;;;;;;;0.20;0.20;;;;;;;;;;4845378;29;20057;-92
2023/09/15 14:47:50;;;;;;;0.17;0.17;;;;;;;;;;4815614;29;20052;-95
2023/09/15 14:50:19;;;;;;;0.20;0.20;;;;;;;;;;4815569;29;20046;-94
2023/09/15 14:52:48;;;;;;;0.10;0.10;;;;;;;;;;4830846;29;20041;-94
2023/09/15 14:55:17;;;;;;;0.10;0.10;;;;;;;;;;4831001;29;20053;-95
2023/09/15 14:57:43;;;;;;;0.10;0.10;;;;;;;;;;4815448;29;20185;-94
2023/09/15 15:00:10;;;;;;;0.20;0.20;;;;;;;;;;4830409;29;20085;-95
2023/09/15 15:02:37;;;;;;;0.10;0.10;;;;;;;;;;4845474;29;20059;-94
2023/09/15 15:05:03;;;;;;;0.25;0.25;;;;;;;;;;4830371;29;20049;-94